M I D A S
Marine Information and Data Acquisition System
Tripno 767 of the Zeeleeuw from 2004-08-25 06:24:38 to 2004-08-25 13:28:47
Back to CruiseResearch ActivitiesStationsMapUnderway DataData graphs

EquipmentUnitsComments
TimeDGPSUTC
LatitudeDGPSDM.mWGS84
LongitudeDGPSDM.mWGS84
SpeedMeteo Stationm/sRelative wind speed
DirectionMeteo StationdegRelative wind direction
TemperatureMeteo Stationdeg CelciusAir temperature
PressureMeteo StationPaAtmospheric pressure
HumidityMeteo Station%Relative humidity
Missing or incorrect values are displayed as -999
Metereological data collected by the RV Zeeleeuw from 2004-08-25 06:24:38 to 2004-08-25 13:28:47
                                                                                    Next 1000 lines
Time Latitude Longitude Speed Direction Temperature Pressure Humidity
2004-08-25 06:24:46 51°13.596 2°56.115 3.3 96 14.9 100480 91
2004-08-25 06:24:52 51°13.596 2°56.115 4 113 14.9 100480 91
2004-08-25 06:24:57 51°13.596 2°56.115 3.9 97 14.9 100480 91
2004-08-25 06:25:02 51°13.595 2°56.115 3.7 108 14.9 100480 91
2004-08-25 06:25:06 51°13.595 2°56.114 4.2 82 15 100480 92
2004-08-25 06:25:10 51°13.596 2°56.114 8.4 101 15 100480 92
2004-08-25 06:25:16 51°13.596 2°56.114 6.3 96 15 100480 92
2004-08-25 06:25:22 51°13.596 2°56.114 5.9 80 15 100480 92
2004-08-25 06:25:26 51°13.596 2°56.114 6.6 98 15 100480 92
2004-08-25 06:25:32 51°13.595 2°56.114 4.9 96 15 100480 92
2004-08-25 06:25:36 51°13.595 2°56.114 5.2 121 15 100480 92
2004-08-25 06:25:41 51°13.595 2°56.114 3.2 111 15 100480 92
2004-08-25 06:25:46 51°13.595 2°56.114 3.2 101 15 100480 91
2004-08-25 06:25:52 51°13.595 2°56.114 3.1 119 15 100480 91
2004-08-25 06:25:57 51°13.595 2°56.114 3.4 103 15 100480 91
2004-08-25 06:26:02 51°13.595 2°56.114 4.4 100 15 100480 91
2004-08-25 06:26:06 51°13.595 2°56.114 3.9 109 15 100480 91
2004-08-25 06:26:10 51°13.595 2°56.114 4.4 87 15 100480 91
2004-08-25 06:26:14 51°13.595 2°56.114 4 79 15 100480 91
2004-08-25 06:26:22 51°13.595 2°56.114 4.2 78 15 100480 91
2004-08-25 06:26:27 51°13.595 2°56.114 4.3 74 15 100480 91
2004-08-25 06:26:30 51°13.595 2°56.114 5.9 119 15 100480 91
2004-08-25 06:26:37 51°13.595 2°56.114 4.3 85 15 100480 91
2004-08-25 06:26:42 51°13.595 2°56.113 6.5 98 15 100480 91
2004-08-25 06:26:46 51°13.595 2°56.112 6.5 102 15 100480 91
2004-08-25 06:26:52 51°13.596 2°56.109 6.9 101 15 100480 91
2004-08-25 06:26:57 51°13.597 2°56.106 6.1 107 15 100470 91
2004-08-25 06:27:02 51°13.598 2°56.102 4.3 109 15 100470 91
2004-08-25 06:27:07 51°13.6 2°56.098 4.1 113 15 100480 91
2004-08-25 06:27:12 51°13.601 2°56.093 4 145 15 100480 91
2004-08-25 06:27:18 51°13.603 2°56.087 4.7 141 15 100480 91
2004-08-25 06:27:23 51°13.605 2°56.081 5.3 123 15 100480 91
2004-08-25 06:27:28 51°13.606 2°56.075 5.2 129 15 100480 91
2004-08-25 06:27:32 51°13.608 2°56.07 4.3 144 15 100480 91
2004-08-25 06:27:38 51°13.609 2°56.062 5.3 115 15 100480 91
2004-08-25 06:27:43 51°13.611 2°56.056 4.2 124 15 100480 91
2004-08-25 06:27:48 51°13.612 2°56.051 4.1 141 15 100480 91
2004-08-25 06:27:52 51°13.612 2°56.05 3.5 111 15 100480 91
2004-08-25 06:27:58 51°13.612 2°56.051 2.8 108 15 100480 91
2004-08-25 06:28:03 51°13.612 2°56.053 5.8 94 15 100480 91
2004-08-25 06:28:08 51°13.611 2°56.055 3.8 98 15 100480 91
2004-08-25 06:28:12 51°13.611 2°56.056 3.6 99 15 100480 91
2004-08-25 06:28:18 51°13.612 2°56.056 6 88 15 100480 91
2004-08-25 06:28:23 51°13.613 2°56.055 4.1 94 15 100480 91
2004-08-25 06:28:27 51°13.613 2°56.053 3.7 100 15 100480 91
2004-08-25 06:28:30 51°13.614 2°56.052 5.3 96 15 100480 91
2004-08-25 06:28:37 51°13.616 2°56.047 8 123 15 100470 91
2004-08-25 06:28:43 51°13.618 2°56.042 5.4 120 15 100470 91
2004-08-25 06:28:48 51°13.62 2°56.036 6.2 113 15 100480 91
2004-08-25 06:28:53 51°13.622 2°56.031 6.5 106 15 100480 91
2004-08-25 06:28:58 51°13.624 2°56.025 6 106 15 100480 91
2004-08-25 06:29:03 51°13.626 2°56.018 7.1 116 15 100480 91
2004-08-25 06:29:07 51°13.628 2°56.013 5.4 119 15 100470 91
2004-08-25 06:29:11 51°13.63 2°56.008 5.1 227 15 100470 91
2004-08-25 06:29:18 51°13.633 2°55.998 5.1 122 15 100470 91
2004-08-25 06:29:23 51°13.636 2°55.991 4.4 109 15 100470 91
2004-08-25 06:29:28 51°13.638 2°55.983 3.6 80 15 100470 91
2004-08-25 06:29:31 51°13.64 2°55.979 2.7 122 15 100470 91
2004-08-25 06:29:38 51°13.644 2°55.967 2.9 155 15 100470 91
2004-08-25 06:29:43 51°13.647 2°55.959 2.8 122 15 100470 91
2004-08-25 06:29:47 51°13.649 2°55.952 3.4 124 15 100480 91
2004-08-25 06:29:51 51°13.652 2°55.945 3.1 134 15 100480 91
2004-08-25 06:29:58 51°13.656 2°55.932 3 134 15 100470 91
2004-08-25 06:30:03 51°13.658 2°55.923 2.7 116 15 100470 91
2004-08-25 06:30:08 51°13.661 2°55.913 4.4 120 15 100470 91
2004-08-25 06:30:12 51°13.662 2°55.905 7.8 116 15 100470 91
2004-08-25 06:30:18 51°13.665 2°55.894 5.8 227 15 100470 91
2004-08-25 06:30:22 51°13.667 2°55.886 4.9 227 15 100470 91
2004-08-25 06:30:28 51°13.668 2°55.873 5.4 152 15 100470 91
2004-08-25 06:30:33 51°13.67 2°55.863 5.9 150 15 100470 91
2004-08-25 06:30:38 51°13.671 2°55.853 5.2 132 15 100480 91
2004-08-25 06:30:43 51°13.671 2°55.844 5.3 40 15 100480 91
2004-08-25 06:30:47 51°13.671 2°55.836 4.6 138 15 100470 91
2004-08-25 06:30:52 51°13.672 2°55.827 5.2 166 15 100470 91
2004-08-25 06:30:58 51°13.672 2°55.817 5.1 167 15 100470 91
2004-08-25 06:31:02 51°13.672 2°55.81 6.2 119 15 100470 91
2004-08-25 06:31:07 51°13.672 2°55.802 5.6 133 15 100470 91
2004-08-25 06:31:10 51°13.672 2°55.797 6.5 122 15 100470 91
2004-08-25 06:31:17 51°13.671 2°55.787 6.4 146 15 100470 91
2004-08-25 06:31:22 51°13.671 2°55.779 4.8 143 15 100470 91
2004-08-25 06:31:27 51°13.67 2°55.772 6 226 15 100470 91
2004-08-25 06:31:30 51°13.67 2°55.769 3.3 144 15 100470 91
2004-08-25 06:31:36 51°13.67 2°55.764 3.6 142 15 100470 91
2004-08-25 06:31:42 51°13.67 2°55.761 4.3 148 15 100470 91
2004-08-25 06:31:47 51°13.671 2°55.761 3.4 147 15.1 100470 91
2004-08-25 06:31:50 51°13.672 2°55.762 3.7 154 15.1 100470 91
2004-08-25 06:31:56 51°13.675 2°55.764 3.2 174 15 100470 91
2004-08-25 06:32:02 51°13.68 2°55.766 2.7 186 15 100470 91
2004-08-25 06:32:07 51°13.685 2°55.767 2.7 199 15 100470 91
2004-08-25 06:32:11 51°13.69 2°55.766 2.4 261 15 100470 91
2004-08-25 06:32:14 51°13.693 2°55.765 2.2 315 15 100470 91
2004-08-25 06:32:22 51°13.703 2°55.76 3 259 15 100470 91
2004-08-25 06:32:26 51°13.708 2°55.757 3 299 15 100480 91
2004-08-25 06:32:35 51°13.718 2°55.746 2.7 296 15 100470 91
2004-08-25 06:32:42 51°13.727 2°55.735 3 301 15 100470 91
2004-08-25 06:32:47 51°13.733 2°55.727 4.3 306 15 100470 91
2004-08-25 06:32:52 51°13.741 2°55.719 5.8 271 15 100470 91
2004-08-25 06:32:57 51°13.748 2°55.71 3.8 271 15 100470 91
2004-08-25 06:33:02 51°13.756 2°55.701 3.4 315 15 100470 91
2004-08-25 06:33:06 51°13.763 2°55.693 2.9 284 15 100470 91
2004-08-25 06:33:09 51°13.768 2°55.688 3.1 346 15 100470 91
2004-08-25 06:33:15 51°13.779 2°55.676 3.7 313 15 100470 91
2004-08-25 06:33:21 51°13.791 2°55.665 3.3 240 15 100470 91
2004-08-25 06:33:26 51°13.801 2°55.655 3 274 15.1 100470 91
2004-08-25 06:33:30 51°13.809 2°55.647 2.1 288 15.1 100470 91
2004-08-25 06:33:36 51°13.822 2°55.635 1.2 307 15.1 100470 91
2004-08-25 06:33:42 51°13.834 2°55.624 1.7 298 15.1 100470 91
2004-08-25 06:33:46 51°13.843 2°55.617 1.5 280 15.1 100470 91
2004-08-25 06:33:52 51°13.857 2°55.607 1.3 172 15.1 100470 91
2004-08-25 06:33:57 51°13.868 2°55.598 2.2 312 15.1 100470 91
2004-08-25 06:34:02 51°13.88 2°55.59 1.1 24 15.1 100470 91
2004-08-25 06:34:07 51°13.892 2°55.581 1.1 338 15.1 100470 91
2004-08-25 06:34:12 51°13.903 2°55.572 3 329 15.1 100470 91
2004-08-25 06:34:17 51°13.915 2°55.564 3.9 328 15.1 100470 91
2004-08-25 06:34:22 51°13.927 2°55.555 3.2 299 15.1 100470 91
2004-08-25 06:34:26 51°13.937 2°55.548 4.1 284 15.1 100470 91
2004-08-25 06:34:30 51°13.947 2°55.542 7.1 262 15.1 100470 91
2004-08-25 06:34:37 51°13.964 2°55.53 7.6 278 15.1 100470 91
2004-08-25 06:34:42 51°13.976 2°55.522 3.7 287 15.1 100470 91
2004-08-25 06:34:46 51°13.985 2°55.515 4.4 255 15.1 100460 91
2004-08-25 06:34:50 51°13.995 2°55.508 3.9 288 15.1 100460 91
2004-08-25 06:34:57 51°14.012 2°55.496 3.2 304 15.1 100460 90
2004-08-25 06:35:02 51°14.025 2°55.488 3.2 307 15.1 100460 90
2004-08-25 06:35:06 51°14.034 2°55.481 4.6 318 15.1 100460 90
2004-08-25 06:35:12 51°14.049 2°55.47 2 277 15.1 100460 90
2004-08-25 06:35:14 51°14.054 2°55.467 2.5 336 15.1 100460 90
2004-08-25 06:35:22 51°14.074 2°55.453 3 298 15.1 100460 90
2004-08-25 06:35:27 51°14.086 2°55.445 5.6 281 15.1 100470 90
2004-08-25 06:35:30 51°14.094 2°55.44 5 293 15.1 100470 90
2004-08-25 06:35:36 51°14.109 2°55.429 4.8 302 15.1 100470 90
2004-08-25 06:35:42 51°14.125 2°55.418 3.4 331 15.1 100470 90
2004-08-25 06:35:46 51°14.136 2°55.409 2.6 339 15.1 100460 90
2004-08-25 06:35:50 51°14.146 2°55.401 3.6 309 15.1 100460 90
2004-08-25 06:35:56 51°14.162 2°55.387 5.1 307 15.1 100460 90
2004-08-25 06:36:02 51°14.178 2°55.373 5.8 301 15.1 100460 90
2004-08-25 06:36:07 51°14.191 2°55.359 7.9 292 15.1 100460 90
2004-08-25 06:36:11 51°14.201 2°55.349 4.7 280 15.1 100460 90
2004-08-25 06:36:17 51°14.217 2°55.331 5.4 331 15.1 100460 90
2004-08-25 06:36:22 51°14.229 2°55.315 7.5 335 15.1 100460 90
2004-08-25 06:36:26 51°14.239 2°55.302 8.2 318 15.1 100460 90
2004-08-25 06:36:31 51°14.251 2°55.285 7.9 315 15.1 100460 90
2004-08-25 06:36:34 51°14.258 2°55.274 9.4 308 15.1 100460 90
2004-08-25 06:36:42 51°14.276 2°55.244 9.3 325 15.1 100460 90
2004-08-25 06:36:46 51°14.285 2°55.228 6.9 317 15.1 100460 90
2004-08-25 06:36:52 51°14.298 2°55.204 8.1 317 15.1 100460 90
2004-08-25 06:36:57 51°14.309 2°55.184 9.9 318 15.1 100440 90
2004-08-25 06:37:03 51°14.322 2°55.159 11.5 312 15.1 100440 90
2004-08-25 06:37:07 51°14.33 2°55.142 12.1 309 15.1 100450 90
2004-08-25 06:37:12 51°14.341 2°55.121 8.7 287 15.1 100450 90
2004-08-25 06:37:17 51°14.351 2°55.099 9.1 315 15.1 100440 90
2004-08-25 06:37:22 51°14.361 2°55.078 8.7 313 15.1 100440 90
2004-08-25 06:37:27 51°14.372 2°55.057 11.5 309 15.1 100450 90
2004-08-25 06:37:30 51°14.379 2°55.045 13.7 288 15.1 100450 90
2004-08-25 06:37:37 51°14.395 2°55.018 11.2 296 15.1 100440 90
2004-08-25 06:37:42 51°14.408 2°54.999 8.1 297 15.1 100440 90
2004-08-25 06:37:46 51°14.418 2°54.985 10 301 15.2 100440 90
2004-08-25 06:37:50 51°14.428 2°54.971 11.1 307 15.2 100440 90
2004-08-25 06:37:57 51°14.447 2°54.947 11 301 15.1 100430 90
2004-08-25 06:38:02 51°14.46 2°54.928 11.4 292 15.1 100430 90
2004-08-25 06:38:07 51°14.473 2°54.91 11.4 290 15.1 100430 89
2004-08-25 06:38:10 51°14.481 2°54.898 12.1 294 15.1 100430 89
2004-08-25 06:38:17 51°14.501 2°54.872 10.5 293 15.2 100430 90
2004-08-25 06:38:22 51°14.514 2°54.853 9.2 286 15.2 100430 90
2004-08-25 06:38:27 51°14.528 2°54.835 10.4 297 15.2 100430 90
2004-08-25 06:38:30 51°14.536 2°54.823 11.1 286 15.2 100430 90
2004-08-25 06:38:37 51°14.556 2°54.797 10 285 15.2 100410 90
2004-08-25 06:38:42 51°14.57 2°54.779 9.9 293 15.2 100410 90
2004-08-25 06:38:47 51°14.585 2°54.761 8.4 282 15.2 100420 90
2004-08-25 06:38:51 51°14.596 2°54.746 8.6 294 15.2 100420 90
2004-08-25 06:38:57 51°14.614 2°54.725 8.7 290 15.2 100420 90
2004-08-25 06:39:02 51°14.629 2°54.707 9 294 15.2 100420 90
2004-08-25 06:39:06 51°14.641 2°54.693 9.2 284 15.2 100430 90
2004-08-25 06:39:09 51°14.65 2°54.682 8.9 283 15.2 100430 90
2004-08-25 06:39:17 51°14.674 2°54.654 9.8 289 15.3 100430 90
2004-08-25 06:39:22 51°14.689 2°54.637 10 294 15.3 100430 90
2004-08-25 06:39:27 51°14.704 2°54.619 11.6 281 15.2 100430 90
2004-08-25 06:39:30 51°14.713 2°54.609 13.7 284 15.2 100430 90
2004-08-25 06:39:37 51°14.734 2°54.584 11.8 280 15.2 100430 90
2004-08-25 06:39:42 51°14.748 2°54.566 11.4 282 15.2 100430 90
2004-08-25 06:39:46 51°14.76 2°54.552 10.5 287 15.2 100420 90
2004-08-25 06:39:51 51°14.775 2°54.534 10.2 279 15.2 100420 90
2004-08-25 06:39:54 51°14.784 2°54.524 9.8 281 15.2 100420 90
2004-08-25 06:40:03 51°14.811 2°54.492 11.1 281 15.2 100420 90
2004-08-25 06:40:07 51°14.823 2°54.478 10.7 278 15.2 100420 89
2004-08-25 06:40:12 51°14.838 2°54.461 11.1 284 15.2 100420 89
2004-08-25 06:40:14 51°14.844 2°54.454 9.9 293 15.3 100430 89
2004-08-25 06:40:21 51°14.865 2°54.429 9.9 291 15.3 100430 89
2004-08-25 06:40:26 51°14.88 2°54.412 9.7 280 15.3 100420 89
2004-08-25 06:40:30 51°14.893 2°54.399 10 280 15.3 100420 89
2004-08-25 06:40:37 51°14.914 2°54.376 10.7 279 15.3 100430 90
2004-08-25 06:40:42 51°14.93 2°54.36 8.8 286 15.3 100430 90
2004-08-25 06:40:46 51°14.942 2°54.347 11.1 286 15.3 100430 90
2004-08-25 06:40:50 51°14.955 2°54.334 9.8 287 15.3 100430 90
2004-08-25 06:40:56 51°14.973 2°54.315 13 277 15.3 100430 90
2004-08-25 06:41:02 51°14.992 2°54.294 12 277 15.3 100430 90
2004-08-25 06:41:06 51°15.004 2°54.281 11.3 278 15.4 100430 90
2004-08-25 06:41:10 51°15.016 2°54.268 12.1 274 15.4 100430 90
2004-08-25 06:41:16 51°15.035 2°54.248 8.1 279 15.4 100420 90
2004-08-25 06:41:22 51°15.054 2°54.228 10.7 285 15.4 100420 90
2004-08-25 06:41:27 51°15.069 2°54.212 11 287 15.4 100410 90
2004-08-25 06:41:29 51°15.076 2°54.206 13 271 15.4 100410 90
2004-08-25 06:41:35 51°15.095 2°54.186 12 274 15.4 100420 89
2004-08-25 06:41:42 51°15.117 2°54.164 10.3 287 15.4 100420 89
2004-08-25 06:41:47 51°15.133 2°54.148 9.5 270 15.4 100440 90
2004-08-25 06:41:50 51°15.143 2°54.138 9.6 271 15.4 100440 90
2004-08-25 06:41:56 51°15.162 2°54.119 10.5 272 15.4 100420 89
2004-08-25 06:42:02 51°15.181 2°54.1 9.5 293 15.4 100420 89
2004-08-25 06:42:06 51°15.193 2°54.087 9.6 291 15.4 100430 90
2004-08-25 06:42:10 51°15.206 2°54.074 10 281 15.4 100430 90
2004-08-25 06:42:16 51°15.225 2°54.054 9.4 282 15.4 100430 90
2004-08-25 06:42:22 51°15.244 2°54.036 8.8 280 15.4 100430 90
2004-08-25 06:42:27 51°15.261 2°54.02 9.3 280 15.4 100430 90
2004-08-25 06:42:29 51°15.267 2°54.014 9.3 281 15.4 100430 90
2004-08-25 06:42:35 51°15.287 2°53.996 10.5 281 15.4 100430 90
2004-08-25 06:42:42 51°15.31 2°53.975 10.3 278 15.4 100430 90
2004-08-25 06:42:46 51°15.323 2°53.963 10 273 15.4 100420 89
2004-08-25 06:42:52 51°15.342 2°53.945 8.5 285 15.4 100420 89
2004-08-25 06:42:56 51°15.355 2°53.933 11 283 15.5 100430 90
2004-08-25 06:43:02 51°15.375 2°53.915 10.4 283 15.5 100430 90
2004-08-25 06:43:06 51°15.388 2°53.903 10.5 281 15.5 100430 90
2004-08-25 06:43:09 51°15.398 2°53.894 11.3 273 15.5 100430 90
2004-08-25 06:43:17 51°15.424 2°53.87 10.1 284 15.5 100430 90
2004-08-25 06:43:22 51°15.441 2°53.855 10.5 296 15.5 100430 90
2004-08-25 06:43:27 51°15.457 2°53.84 10.4 283 15.5 100420 90
2004-08-25 06:43:32 51°15.474 2°53.825 12.4 273 15.5 100420 90
2004-08-25 06:43:40 51°15.5 2°53.802 10.7 272 15.5 100430 90
2004-08-25 06:43:42 51°15.506 2°53.796 9.8 280 15.5 100430 90
2004-08-25 06:43:47 51°15.523 2°53.781 11.5 285 15.5 100420 90
2004-08-25 06:43:53 51°15.542 2°53.763 10.6 281 15.5 100420 90
2004-08-25 06:43:57 51°15.555 2°53.751 10.8 277 15.5 100420 90
2004-08-25 06:44:02 51°15.572 2°53.736 9.9 276 15.5 100420 90
2004-08-25 06:44:06 51°15.585 2°53.724 11.7 266 15.5 100430 90
2004-08-25 06:44:13 51°15.608 2°53.703 12.5 272 15.5 100430 90
2004-08-25 06:44:15 51°15.614 2°53.696 11.5 271 15.6 100420 90
2004-08-25 06:44:22 51°15.637 2°53.675 9.9 276 15.6 100420 90
2004-08-25 06:44:26 51°15.65 2°53.663 11.5 275 15.5 100420 90
2004-08-25 06:44:33 51°15.673 2°53.642 10.4 267 15.5 100420 90
2004-08-25 06:44:35 51°15.68 2°53.636 9.1 273 15.5 100420 89
2004-08-25 06:44:42 51°15.703 2°53.617 10.6 272 15.5 100420 89
2004-08-25 06:44:45 51°15.713 2°53.608 10.4 271 15.5 100420 89
2004-08-25 06:44:53 51°15.74 2°53.587 11 275 15.5 100420 89
2004-08-25 06:44:57 51°15.754 2°53.577 10.8 272 15.5 100430 89
2004-08-25 06:45:02 51°15.771 2°53.564 11.5 263 15.5 100430 89
2004-08-25 06:45:07 51°15.788 2°53.551 11.3 264 15.5 100430 89
2004-08-25 06:45:13 51°15.81 2°53.537 9.3 264 15.5 100430 89
2004-08-25 06:45:17 51°15.823 2°53.526 9.3 271 15.5 100430 89
2004-08-25 06:45:22 51°15.84 2°53.514 9.8 264 15.5 100430 89
2004-08-25 06:45:26 51°15.854 2°53.504 10.9 268 15.5 100430 89
2004-08-25 06:45:32 51°15.875 2°53.489 9.1 281 15.5 100430 89
2004-08-25 06:45:37 51°15.893 2°53.476 9.9 276 15.5 100440 89
2004-08-25 06:45:42 51°15.91 2°53.464 10.8 269 15.5 100440 89
2004-08-25 06:45:46 51°15.924 2°53.455 11.4 265 15.5 100430 89
2004-08-25 06:45:52 51°15.945 2°53.439 11.4 263 15.5 100430 89
2004-08-25 06:45:57 51°15.962 2°53.427 10.7 262 15.5 100430 89
2004-08-25 06:46:02 51°15.979 2°53.415 11.3 271 15.5 100430 89
2004-08-25 06:46:07 51°15.996 2°53.402 11.4 274 15.5 100430 89
2004-08-25 06:46:13 51°16.017 2°53.387 11 263 15.5 100430 89
2004-08-25 06:46:17 51°16.031 2°53.377 11.4 269 15.5 100430 89
2004-08-25 06:46:22 51°16.048 2°53.364 11.6 273 15.5 100430 89
2004-08-25 06:46:26 51°16.062 2°53.354 11.5 273 15.5 100420 89
2004-08-25 06:46:32 51°16.083 2°53.339 9.7 285 15.5 100420 89
2004-08-25 06:46:37 51°16.1 2°53.326 8.8 277 15.5 100430 89
2004-08-25 06:46:42 51°16.117 2°53.315 9.3 274 15.5 100430 89
2004-08-25 06:46:47 51°16.135 2°53.303 9 268 15.5 100430 89
2004-08-25 06:46:52 51°16.152 2°53.292 7.8 264 15.5 100430 89
2004-08-25 06:46:57 51°16.17 2°53.281 11.3 271 15.5 100420 89
2004-08-25 06:47:02 51°16.188 2°53.271 11.8 264 15.5 100420 89
2004-08-25 06:47:06 51°16.203 2°53.263 7.9 260 15.5 100430 89
2004-08-25 06:47:13 51°16.228 2°53.248 8.7 282 15.5 100430 89
2004-08-25 06:47:15 51°16.235 2°53.244 10.2 271 15.5 100430 89
2004-08-25 06:47:23 51°16.264 2°53.227 10 269 15.5 100430 89
2004-08-25 06:47:25 51°16.271 2°53.223 9.2 280 15.5 100430 89
2004-08-25 06:47:33 51°16.3 2°53.207 12.9 265 15.5 100430 89
2004-08-25 06:47:37 51°16.314 2°53.198 11.4 268 15.5 100430 89
2004-08-25 06:47:42 51°16.332 2°53.187 10.7 266 15.5 100430 89
2004-08-25 06:47:46 51°16.346 2°53.178 11.4 268 15.5 100430 89
2004-08-25 06:47:53 51°16.371 2°53.164 10.2 275 15.5 100430 89
2004-08-25 06:47:58 51°16.389 2°53.153 11.4 268 15.5 100430 89
2004-08-25 06:48:02 51°16.404 2°53.145 11.2 270 15.5 100430 89
2004-08-25 06:48:05 51°16.415 2°53.138 10.2 273 15.5 100430 88
2004-08-25 06:48:12 51°16.439 2°53.123 10.8 271 15.5 100430 88
2004-08-25 06:48:17 51°16.457 2°53.112 12.7 270 15.5 100430 89
2004-08-25 06:48:22 51°16.475 2°53.101 10.3 270 15.5 100430 89
2004-08-25 06:48:27 51°16.493 2°53.089 8.8 269 15.5 100430 89
2004-08-25 06:48:32 51°16.51 2°53.079 10.4 266 15.5 100430 89
2004-08-25 06:48:37 51°16.528 2°53.067 10 266 15.5 100430 88
2004-08-25 06:48:42 51°16.546 2°53.057 8.8 276 15.5 100430 88
2004-08-25 06:48:47 51°16.563 2°53.045 9.1 274 15.5 100440 89
2004-08-25 06:48:53 51°16.585 2°53.032 10.6 270 15.5 100440 89
2004-08-25 06:48:57 51°16.599 2°53.023 10.1 274 15.5 100440 89
2004-08-25 06:49:02 51°16.617 2°53.012 9.7 278 15.5 100440 89
2004-08-25 06:49:06 51°16.631 2°53.003 10.6 271 15.6 100440 89
2004-08-25 06:49:13 51°16.655 2°52.986 10 266 15.6 100440 89
2004-08-25 06:49:17 51°16.669 2°52.977 9.6 264 15.5 100430 89
2004-08-25 06:49:22 51°16.686 2°52.965 7.5 279 15.5 100430 89
2004-08-25 06:49:27 51°16.704 2°52.954 9.8 275 15.6 100430 89
2004-08-25 06:49:33 51°16.725 2°52.941 9.8 275 15.6 100430 89
2004-08-25 06:49:37 51°16.739 2°52.932 9.8 275 15.6 100430 89
2004-08-25 06:49:43 51°16.76 2°52.918 8.4 275 15.6 100430 89
2004-08-25 06:49:46 51°16.77 2°52.911 9.9 274 15.6 100440 89
2004-08-25 06:49:53 51°16.794 2°52.894 9.3 271 15.6 100440 89
2004-08-25 06:49:57 51°16.808 2°52.886 8.9 269 15.6 100440 89
2004-08-25 06:50:02 51°16.826 2°52.874 10.2 276 15.6 100440 89
2004-08-25 06:50:06 51°16.839 2°52.865 10.1 266 15.6 100430 89
2004-08-25 06:50:12 51°16.86 2°52.851 10.7 263 15.6 100430 89
2004-08-25 06:50:17 51°16.878 2°52.84 9 286 15.6 100430 89
2004-08-25 06:50:22 51°16.895 2°52.83 9.1 272 15.6 100430 89
2004-08-25 06:50:27 51°16.913 2°52.818 12.3 274 15.6 100430 89
2004-08-25 06:50:33 51°16.934 2°52.805 11.7 270 15.6 100430 89
2004-08-25 06:50:37 51°16.948 2°52.795 10.6 271 15.6 100440 89
2004-08-25 06:50:42 51°16.965 2°52.784 8.3 269 15.6 100440 89
2004-08-25 06:50:45 51°16.975 2°52.777 9.4 270 15.7 100440 89
2004-08-25 06:50:53 51°17.004 2°52.759 10.9 265 15.7 100440 89
2004-08-25 06:50:57 51°17.018 2°52.749 11.3 267 15.6 100430 89
2004-08-25 06:51:02 51°17.035 2°52.737 9.2 263 15.6 100430 89
2004-08-25 06:51:07 51°17.053 2°52.727 9.8 275 15.6 100430 89
2004-08-25 06:51:11 51°17.067 2°52.717 9.6 278 15.6 100430 89
2004-08-25 06:51:17 51°17.088 2°52.704 10.3 268 15.6 100440 89
2004-08-25 06:51:21 51°17.102 2°52.695 10.6 265 15.6 100440 89
2004-08-25 06:51:27 51°17.123 2°52.681 9.2 263 15.7 100430 89
2004-08-25 06:51:33 51°17.145 2°52.669 8.8 281 15.7 100430 89
2004-08-25 06:51:37 51°17.159 2°52.659 10.5 272 15.7 100430 89
2004-08-25 06:51:42 51°17.176 2°52.649 10.8 275 15.7 100430 89
2004-08-25 06:51:45 51°17.187 2°52.641 10.7 273 15.7 100430 89
2004-08-25 06:51:53 51°17.215 2°52.624 11.9 277 15.7 100430 89
2004-08-25 06:51:58 51°17.233 2°52.613 10.2 274 15.7 100440 89
2004-08-25 06:52:02 51°17.247 2°52.604 12.4 272 15.7 100440 89
2004-08-25 06:52:05 51°17.257 2°52.597 9.3 285 15.7 100430 90
2004-08-25 06:52:12 51°17.282 2°52.581 10 282 15.7 100430 90
2004-08-25 06:52:15 51°17.292 2°52.573 9.6 286 15.7 100430 89
2004-08-25 06:52:22 51°17.316 2°52.553 10.1 288 15.7 100430 89
2004-08-25 06:52:26 51°17.329 2°52.542 11.3 287 15.8 100430 90
2004-08-25 06:52:33 51°17.352 2°52.521 12.1 288 15.8 100430 90
2004-08-25 06:52:37 51°17.364 2°52.508 11 294 15.8 100430 90
2004-08-25 06:52:42 51°17.38 2°52.492 12.2 290 15.8 100430 90
2004-08-25 06:52:46 51°17.393 2°52.48 11.5 280 15.8 100430 89
2004-08-25 06:52:53 51°17.414 2°52.456 11.5 282 15.8 100430 89
2004-08-25 06:52:58 51°17.428 2°52.438 14.3 295 15.8 100420 89
2004-08-25 06:53:02 51°17.439 2°52.422 13.3 292 15.8 100420 89
2004-08-25 06:53:05 51°17.447 2°52.411 14 290 15.8 100420 89
2004-08-25 06:53:13 51°17.468 2°52.379 13.6 289 15.8 100420 89
2004-08-25 06:53:17 51°17.478 2°52.363 14 292 15.8 100420 89
2004-08-25 06:53:22 51°17.49 2°52.342 13.2 306 15.8 100420 89
2004-08-25 06:53:25 51°17.498 2°52.329 13.5 296 15.8 100420 89
2004-08-25 06:53:33 51°17.516 2°52.295 14.7 301 15.8 100420 89
2004-08-25 06:53:37 51°17.524 2°52.277 15.3 296 15.8 100410 89
2004-08-25 06:53:42 51°17.535 2°52.254 14 298 15.8 100410 89
2004-08-25 06:53:45 51°17.541 2°52.24 12.5 304 15.8 100410 89
2004-08-25 06:53:53 51°17.557 2°52.202 13.8 301 15.8 100410 89
2004-08-25 06:53:57 51°17.565 2°52.183 14.5 301 15.8 100400 89
2004-08-25 06:54:02 51°17.575 2°52.16 15.3 300 15.8 100400 89
2004-08-25 06:54:07 51°17.584 2°52.136 14.1 302 15.9 100390 89
2004-08-25 06:54:11 51°17.592 2°52.116 13.1 302 15.9 100390 89
2004-08-25 06:54:17 51°17.605 2°52.088 15.3 300 15.9 100410 89
2004-08-25 06:54:22 51°17.615 2°52.064 14.2 304 15.9 100410 89
2004-08-25 06:54:25 51°17.621 2°52.05 13.3 297 15.8 100410 89
2004-08-25 06:54:32 51°17.635 2°52.016 14.3 302 15.8 100410 89
2004-08-25 06:54:37 51°17.645 2°51.991 14.5 302 15.8 100400 88
2004-08-25 06:54:42 51°17.655 2°51.967 13.7 302 15.8 100400 88
2004-08-25 06:54:47 51°17.665 2°51.943 13.5 301 15.8 100400 88
2004-08-25 06:54:53 51°17.678 2°51.914 12.7 303 15.8 100400 88
2004-08-25 06:54:57 51°17.686 2°51.895 12 305 15.8 100410 88
2004-08-25 06:55:02 51°17.696 2°51.871 14.4 301 15.8 100410 88
2004-08-25 06:55:06 51°17.704 2°51.851 15.6 303 15.9 100410 88
2004-08-25 06:55:13 51°17.719 2°51.818 13.7 308 15.9 100410 88
2004-08-25 06:55:17 51°17.727 2°51.798 16.2 304 15.9 100410 89
2004-08-25 06:55:22 51°17.738 2°51.774 13.1 299 15.9 100410 89
2004-08-25 06:55:26 51°17.746 2°51.755 11.6 310 15.9 100410 89
2004-08-25 06:55:31 51°17.756 2°51.731 13.8 312 15.9 100410 89
2004-08-25 06:55:37 51°17.769 2°51.702 14.4 309 15.9 100410 89
2004-08-25 06:55:42 51°17.779 2°51.678 13.7 302 15.9 100410 89
2004-08-25 06:55:46 51°17.787 2°51.659 13.8 308 15.9 100410 89
2004-08-25 06:55:53 51°17.802 2°51.624 14.5 311 15.9 100410 89
2004-08-25 06:55:57 51°17.81 2°51.605 14.3 308 16 100420 89
2004-08-25 06:56:02 51°17.82 2°51.581 14.7 308 16 100420 89
2004-08-25 06:56:07 51°17.83 2°51.557 14.5 308 16 100400 89
2004-08-25 06:56:13 51°17.843 2°51.528 14.6 311 16 100400 89
2004-08-25 06:56:17 51°17.851 2°51.508 14.8 228 16 100410 89
2004-08-25 06:56:22 51°17.862 2°51.484 14.9 43 16 100410 89
2004-08-25 06:56:27 51°17.872 2°51.459 16.4 313 16 100400 89
2004-08-25 06:56:33 51°17.884 2°51.431 15.6 314 16 100400 89
2004-08-25 06:56:38 51°17.894 2°51.406 14.3 307 16 100400 89
2004-08-25 06:56:42 51°17.902 2°51.387 14.5 313 16 100400 89
2004-08-25 06:56:46 51°17.91 2°51.367 15.4 314 16 100400 89
2004-08-25 06:56:52 51°17.923 2°51.339 13 307 16 100400 89
2004-08-25 06:56:57 51°17.933 2°51.315 12.5 230 16 100390 88
2004-08-25 06:57:02 51°17.943 2°51.291 15.3 312 16 100390 88
2004-08-25 06:57:06 51°17.951 2°51.271 14.4 308 16 100400 88
2004-08-25 06:57:13 51°17.966 2°51.237 14 230 16 100400 88
2004-08-25 06:57:17 51°17.974 2°51.218 13.8 310 16 100400 88
2004-08-25 06:57:22 51°17.984 2°51.193 13.3 311 16 100400 88
2004-08-25 06:57:26 51°17.993 2°51.174 15 311 16 100410 88
2004-08-25 06:57:33 51°18.008 2°51.141 11.9 306 16 100410 88
2004-08-25 06:57:34 51°18.01 2°51.137 13.4 306 16.1 100410 88
2004-08-25 06:57:43 51°18.03 2°51.094 14.6 302 16.1 100410 88
2004-08-25 06:57:45 51°18.034 2°51.085 13.2 315 16 100400 88
2004-08-25 06:57:53 51°18.051 2°51.047 13.7 312 16 100400 88
2004-08-25 06:57:57 51°18.059 2°51.027 15 311 16 100400 88
2004-08-25 06:58:02 51°18.07 2°51.004 15.1 307 16 100400 88
2004-08-25 06:58:07 51°18.081 2°50.98 15.3 309 16 100410 88
2004-08-25 06:58:11 51°18.089 2°50.961 14.1 303 16 100410 88
2004-08-25 06:58:17 51°18.102 2°50.932 15.6 297 16.1 100400 88
2004-08-25 06:58:22 51°18.113 2°50.908 13.5 303 16.1 100400 88
2004-08-25 06:58:27 51°18.123 2°50.884 13.7 302 16 100400 87
2004-08-25 06:58:33 51°18.136 2°50.856 14 299 16 100400 87
2004-08-25 06:58:37 51°18.144 2°50.836 13.9 299 16 100390 87
2004-08-25 06:58:42 51°18.155 2°50.812 12.3 297 16 100390 87
2004-08-25 06:58:47 51°18.165 2°50.788 12.9 302 16 100390 87
2004-08-25 06:58:52 51°18.176 2°50.764 13.7 299 16 100390 87
2004-08-25 06:58:57 51°18.187 2°50.74 12.4 300 16 100400 87
2004-08-25 06:59:00 51°18.193 2°50.726 14.4 302 16 100400 87
2004-08-25 06:59:07 51°18.208 2°50.693 14.5 309 16 100400 87
2004-08-25 06:59:12 51°18.218 2°50.669 12.9 309 16 100400 87
2004-08-25 06:59:17 51°18.228 2°50.644 12.7 306 16 100410 87
2004-08-25 06:59:22 51°18.239 2°50.621 12.5 305 16 100410 87
2004-08-25 06:59:26 51°18.246 2°50.601 12.9 301 16.1 100400 87
2004-08-25 06:59:30 51°18.254 2°50.582 11.8 304 16.1 100400 87
2004-08-25 06:59:37 51°18.268 2°50.548 12.6 301 16 100390 87
2004-08-25 06:59:43 51°18.28 2°50.519 11.7 313 16 100390 87
2004-08-25 06:59:46 51°18.286 2°50.504 13.2 307 16.1 100410 87
2004-08-25 06:59:51 51°18.296 2°50.48 14.8 309 16.1 100410 87
2004-08-25 06:59:57 51°18.308 2°50.451 14.8 304 16.1 100400 87
2004-08-25 07:00:03 51°18.32 2°50.421 13.5 313 16.1 100400 87
2004-08-25 07:00:06 51°18.326 2°50.407 13.3 312 16.1 100390 88
2004-08-25 07:00:10 51°18.334 2°50.387 13.7 309 16.1 100390 88
2004-08-25 07:00:18 51°18.35 2°50.348 13.5 310 16.1 100400 87
2004-08-25 07:00:22 51°18.358 2°50.328 14.7 307 16.1 100400 87
2004-08-25 07:00:26 51°18.365 2°50.308 14 309 16 100390 87
2004-08-25 07:00:32 51°18.377 2°50.279 13.1 307 16 100390 87
2004-08-25 07:00:37 51°18.387 2°50.254 14.4 306 16 100390 87
2004-08-25 07:00:42 51°18.396 2°50.229 14.4 305 16 100390 87
2004-08-25 07:00:47 51°18.405 2°50.204 12.9 308 16 100390 87
2004-08-25 07:00:53 51°18.417 2°50.175 14.2 307 16 100390 87
2004-08-25 07:00:56 51°18.423 2°50.16 12.8 308 16 100390 87
2004-08-25 07:01:02 51°18.434 2°50.13 12.1 303 16 100390 87
2004-08-25 07:01:07 51°18.444 2°50.105 11.7 312 16 100390 87
2004-08-25 07:01:13 51°18.456 2°50.076 13.3 311 16 100390 87
2004-08-25 07:01:17 51°18.463 2°50.056 14.4 311 16 100390 87
2004-08-25 07:01:21 51°18.471 2°50.037 13.7 307 16 100390 87
2004-08-25 07:01:26 51°18.48 2°50.012 13.2 305 16.1 100390 87
2004-08-25 07:01:32 51°18.492 2°49.983 13.8 309 16.1 100390 87
2004-08-25 07:01:37 51°18.502 2°49.958 12.5 304 16.1 100410 88
2004-08-25 07:01:42 51°18.511 2°49.933 13.8 310 16.1 100410 88
2004-08-25 07:01:46 51°18.519 2°49.914 14.4 301 16.1 100400 88
2004-08-25 07:01:51 51°18.528 2°49.889 12.7 303 16.1 100400 88
2004-08-25 07:01:57 51°18.54 2°49.86 12.5 313 16.1 100390 88
2004-08-25 07:02:02 51°18.55 2°49.835 12.3 313 16.1 100390 88
2004-08-25 07:02:05 51°18.555 2°49.82 13.5 311 16.1 100400 87
2004-08-25 07:02:13 51°18.57 2°49.78 12.3 229 16.1 100400 87
2004-08-25 07:02:15 51°18.574 2°49.77 12.2 310 16.1 100390 87
2004-08-25 07:02:22 51°18.587 2°49.736 13.2 311 16.1 100390 87
2004-08-25 07:02:26 51°18.594 2°49.716 14.7 309 16.1 100390 88
2004-08-25 07:02:33 51°18.608 2°49.682 14.4 310 16.1 100390 88
2004-08-25 07:02:37 51°18.615 2°49.662 13.5 314 16.1 100400 88
2004-08-25 07:02:42 51°18.625 2°49.638 14.2 307 16.1 100400 88
2004-08-25 07:02:46 51°18.632 2°49.618 14 308 16.1 100400 88
2004-08-25 07:02:50 51°18.64 2°49.598 12.9 310 16.1 100400 88
2004-08-25 07:02:56 51°18.651 2°49.569 13.6 229 16.1 100390 88
2004-08-25 07:03:02 51°18.663 2°49.54 14.4 308 16.1 100390 88
2004-08-25 07:03:07 51°18.673 2°49.515 12.4 234 16.1 100390 87
2004-08-25 07:03:13 51°18.684 2°49.486 13.3 306 16.1 100390 87
2004-08-25 07:03:17 51°18.692 2°49.466 13.5 312 16.1 100400 88
2004-08-25 07:03:21 51°18.7 2°49.448 15.4 305 16.1 100400 88
2004-08-25 07:03:27 51°18.711 2°49.418 12.9 305 16.1 100390 87
2004-08-25 07:03:29 51°18.714 2°49.408 15.4 310 16.1 100390 87
2004-08-25 07:03:41 51°18.737 2°49.35 14.6 309 16.1 100390 87
2004-08-25 07:03:43 51°18.741 2°49.34 14.6 302 16.1 100390 87
2004-08-25 07:03:50 51°18.754 2°49.306 14.1 310 16.1 100390 88
2004-08-25 07:03:55 51°18.764 2°49.282 13.8 308 16.1 100390 88
2004-08-25 07:03:59 51°18.772 2°49.262 13.9 304 16.1 100390 88
2004-08-25 07:04:05 51°18.783 2°49.233 13.9 306 16.1 100390 88
2004-08-25 07:04:09 51°18.792 2°49.214 14.8 307 16.1 100380 88
2004-08-25 07:04:15 51°18.803 2°49.184 14.6 307 16.1 100380 88
2004-08-25 07:04:21 51°18.815 2°49.155 15 309 16.1 100390 87
2004-08-25 07:04:25 51°18.822 2°49.136 15.2 312 16.1 100390 87
2004-08-25 07:04:30 51°18.832 2°49.111 14.5 301 16.1 100390 87
2004-08-25 07:04:32 51°18.836 2°49.101 14.9 299 16.1 100390 87
2004-08-25 07:04:41 51°18.853 2°49.058 13.9 299 16.1 100390 87
2004-08-25 07:04:44 51°18.859 2°49.043 13 313 16.1 100390 87
2004-08-25 07:04:50 51°18.871 2°49.014 13.1 312 16 100390 87
2004-08-25 07:04:55 51°18.88 2°48.99 14.1 310 16 100390 87
2004-08-25 07:04:59 51°18.888 2°48.97 15.5 310 16.1 100390 87
2004-08-25 07:05:05 51°18.9 2°48.941 14.4 307 16.1 100390 87
2004-08-25 07:05:10 51°18.91 2°48.917 14.3 307 16.1 100390 87
2004-08-25 07:05:15 51°18.92 2°48.893 15.5 298 16.1 100390 87
2004-08-25 07:05:20 51°18.93 2°48.869 15.4 301 16.1 100400 87
2004-08-25 07:05:26 51°18.942 2°48.84 14.3 299 16.1 100400 87
2004-08-25 07:05:31 51°18.952 2°48.816 15.9 299 16.1 100380 87
2004-08-25 07:05:33 51°18.956 2°48.806 14.6 305 16.1 100380 87
2004-08-25 07:05:41 51°18.972 2°48.768 14.7 300 16.1 100400 87
2004-08-25 07:05:45 51°18.98 2°48.748 14.6 304 16.1 100400 87
2004-08-25 07:05:50 51°18.989 2°48.724 13.5 305 16.1 100380 87
2004-08-25 07:05:55 51°18.999 2°48.7 13.4 307 16.1 100380 87
2004-08-25 07:05:58 51°19.005 2°48.685 13.2 301 16.1 100390 87
2004-08-25 07:06:05 51°19.019 2°48.652 11.3 306 16.1 100390 87
2004-08-25 07:06:10 51°19.03 2°48.629 15 297 16.1 100400 87
2004-08-25 07:06:15 51°19.04 2°48.605 13.3 308 16.1 100400 87
2004-08-25 07:06:27 51°19.062 2°48.547 14 309 16.1 100410 87
2004-08-25 07:06:33 51°19.073 2°48.516 12.9 315 16.1 100410 87
2004-08-25 07:06:37 51°19.079 2°48.496 13.9 314 16.2 100400 88
2004-08-25 07:06:42 51°19.087 2°48.472 13.1 315 16.2 100400 88
2004-08-25 07:06:46 51°19.093 2°48.451 13.3 317 16.2 100400 88
2004-08-25 07:06:50 51°19.099 2°48.431 15.2 311 16.2 100400 88
2004-08-25 07:06:57 51°19.11 2°48.395 14.8 314 16.2 100400 88
2004-08-25 07:07:01 51°19.116 2°48.375 16.2 312 16.2 100400 88
2004-08-25 07:07:05 51°19.122 2°48.355 16 315 16.2 100390 88
2004-08-25 07:07:13 51°19.134 2°48.315 14.8 230 16.2 100390 88
2004-08-25 07:07:17 51°19.141 2°48.294 15.6 311 16.2 100390 88
2004-08-25 07:07:21 51°19.147 2°48.274 14 310 16.2 100390 88
2004-08-25 07:07:26 51°19.155 2°48.249 13.9 313 16.1 100380 88
2004-08-25 07:07:33 51°19.166 2°48.213 14 310 16.1 100380 88
2004-08-25 07:07:37 51°19.172 2°48.193 14.1 310 16.1 100380 87
2004-08-25 07:07:42 51°19.18 2°48.167 13.9 307 16.1 100380 87
2004-08-25 07:07:46 51°19.186 2°48.147 13.1 310 16.1 100380 87
2004-08-25 07:07:52 51°19.195 2°48.116 13.7 312 16.1 100380 87
2004-08-25 07:07:58 51°19.204 2°48.085 14.7 313 16 100390 87
2004-08-25 07:08:00 51°19.207 2°48.074 14.1 309 16 100390 87
2004-08-25 07:08:05 51°19.215 2°48.048 13.5 309 16.1 100390 87
2004-08-25 07:08:15 51°19.231 2°47.997 14.9 43 16.1 100390 87
2004-08-25 07:08:21 51°19.241 2°47.967 15.6 318 16.1 100390 87
2004-08-25 07:08:26 51°19.248 2°47.941 14.5 317 16.1 100390 87
2004-08-25 07:08:30 51°19.255 2°47.921 14.1 230 16.1 100380 88
2004-08-25 07:08:34 51°19.261 2°47.901 15 312 16.1 100380 88
2004-08-25 07:08:40 51°19.271 2°47.87 15.6 312 16.1 100390 88
2004-08-25 07:08:45 51°19.279 2°47.845 15.5 306 16.1 100390 88
2004-08-25 07:08:51 51°19.288 2°47.815 15 307 16.1 100390 88
2004-08-25 07:08:55 51°19.294 2°47.794 15.7 308 16.1 100390 88
2004-08-25 07:09:01 51°19.303 2°47.763 13.7 314 16 100360 88
2004-08-25 07:09:06 51°19.311 2°47.738 14.2 314 16 100360 88
2004-08-25 07:09:10 51°19.317 2°47.718 15.3 308 16.1 100380 88
2004-08-25 07:09:15 51°19.324 2°47.692 15 309 16.1 100380 88
2004-08-25 07:09:19 51°19.33 2°47.671 14.2 315 16.1 100370 88
2004-08-25 07:09:25 51°19.34 2°47.641 15 310 16.1 100370 88
2004-08-25 07:09:30 51°19.348 2°47.615 14.5 312 16.1 100380 88
2004-08-25 07:09:35 51°19.356 2°47.589 14.7 310 16.1 100380 88
2004-08-25 07:09:41 51°19.365 2°47.558 15.9 308 16.1 100380 88
2004-08-25 07:09:44 51°19.37 2°47.543 15.7 308 16.1 100380 88
2004-08-25 07:09:50 51°19.379 2°47.512 14.9 309 16.1 100380 88
2004-08-25 07:09:55 51°19.387 2°47.486 14.1 308 16.1 100380 88
2004-08-25 07:10:00 51°19.395 2°47.462 13.4 312 16.1 100380 88
2004-08-25 07:10:06 51°19.404 2°47.43 14.5 308 16.1 100380 88
2004-08-25 07:10:09 51°19.408 2°47.415 13.9 312 16.1 100380 89
2004-08-25 07:10:14 51°19.415 2°47.389 12.8 318 16.1 100380 89
2004-08-25 07:10:20 51°19.422 2°47.358 14 42 16.1 100370 88
2004-08-25 07:10:24 51°19.428 2°47.337 14.1 312 16.1 100370 88
2004-08-25 07:10:29 51°19.434 2°47.311 14.1 323 16.1 100380 88
2004-08-25 07:10:34 51°19.44 2°47.285 14.5 313 16.1 100380 88
2004-08-25 07:10:42 51°19.449 2°47.243 15.1 313 16.1 100380 89
2004-08-25 07:10:48 51°19.456 2°47.21 14.9 313 16.1 100380 89
2004-08-25 07:10:53 51°19.462 2°47.184 14.7 311 16.1 100380 89
2004-08-25 07:10:58 51°19.467 2°47.157 15.1 311 16.1 100370 89
2004-08-25 07:11:01 51°19.471 2°47.141 14.7 310 16.1 100370 89
2004-08-25 07:11:08 51°19.479 2°47.103 13.5 314 16.1 100380 88
2004-08-25 07:11:13 51°19.485 2°47.076 13.5 313 16.1 100380 88
2004-08-25 07:11:23 51°19.496 2°47.022 15.2 228 16.1 100380 88
2004-08-25 07:11:29 51°19.503 2°46.99 15.5 315 16.1 100380 88
2004-08-25 07:11:32 51°19.506 2°46.974 14.1 312 16.1 100380 88
2004-08-25 07:11:37 51°19.512 2°46.947 14.8 314 16.1 100370 89
2004-08-25 07:11:41 51°19.516 2°46.926 15.5 312 16.1 100370 89
2004-08-25 07:11:49 51°19.525 2°46.884 14.2 311 16.1 100370 88
2004-08-25 07:11:53 51°19.53 2°46.862 14.9 312 16.1 100370 88
2004-08-25 07:11:58 51°19.535 2°46.836 13.8 226 16 100370 88
2004-08-25 07:12:03 51°19.541 2°46.809 14 41 16 100370 88
2004-08-25 07:12:09 51°19.548 2°46.776 15 40 16 100370 88
2004-08-25 07:12:11 51°19.55 2°46.766 14.9 44 16 100370 88
2004-08-25 07:12:17 51°19.557 2°46.734 14.4 40 16 100370 88
2004-08-25 07:12:21 51°19.562 2°46.713 15 313 16 100370 88
2004-08-25 07:12:28 51°19.57 2°46.675 14.8 309 16.1 100380 89
2004-08-25 07:12:34 51°19.578 2°46.643 15.3 312 16.1 100380 89
2004-08-25 07:12:38 51°19.582 2°46.622 14.2 43 16 100370 89
2004-08-25 07:12:43 51°19.588 2°46.595 14.4 311 16 100370 89
2004-08-25 07:12:48 51°19.594 2°46.569 15.2 42 16.1 100360 88
2004-08-25 07:12:53 51°19.601 2°46.544 14.1 314 16.1 100360 88
2004-08-25 07:12:58 51°19.607 2°46.518 13.5 315 16 100370 88
2004-08-25 07:13:02 51°19.612 2°46.497 15.8 313 16 100370 88
2004-08-25 07:13:08 51°19.619 2°46.465 15 314 16 100370 89
2004-08-25 07:13:13 51°19.625 2°46.439 14.4 310 16 100370 89
2004-08-25 07:13:17 51°19.629 2°46.418 14.4 312 16.1 100370 89
2004-08-25 07:13:22 51°19.635 2°46.391 14.6 231 16.1 100370 89
2004-08-25 07:13:29 51°19.642 2°46.354 14.5 43 16.1 100390 89
2004-08-25 07:13:33 51°19.647 2°46.332 15.9 313 16.1 100390 89
2004-08-25 07:13:38 51°19.652 2°46.305 14.7 229 16.1 100380 89
2004-08-25 07:13:42 51°19.657 2°46.284 16.2 315 16.1 100380 89
2004-08-25 07:13:49 51°19.664 2°46.247 14.9 311 16.1 100380 89
2004-08-25 07:13:54 51°19.67 2°46.221 14.8 310 16.1 100380 89
2004-08-25 07:13:58 51°19.674 2°46.199 15 314 16.1 100370 89
2004-08-25 07:14:01 51°19.677 2°46.183 14.1 313 16.1 100370 89
2004-08-25 07:14:09 51°19.686 2°46.141 15.2 311 16.1 100370 89
2004-08-25 07:14:14 51°19.692 2°46.115 13.3 306 16.1 100370 89
2004-08-25 07:14:18 51°19.697 2°46.094 14.1 311 16.1 100370 89
2004-08-25 07:14:22 51°19.701 2°46.073 13.8 308 16.1 100370 89
2004-08-25 07:14:27 51°19.707 2°46.047 14.4 311 16.1 100360 89
2004-08-25 07:14:33 51°19.714 2°46.015 13.4 317 16.1 100360 89
2004-08-25 07:14:38 51°19.72 2°45.989 14 314 16 100380 89
2004-08-25 07:14:42 51°19.724 2°45.968 14.9 313 16 100380 89
2004-08-25 07:14:49 51°19.732 2°45.931 14 314 16.1 100390 89
2004-08-25 07:14:54 51°19.738 2°45.905 15.3 314 16.1 100390 89
2004-08-25 07:14:58 51°19.743 2°45.884 14.7 313 16.1 100380 89
2004-08-25 07:15:02 51°19.747 2°45.863 14.1 39 16.1 100380 89
2004-08-25 07:15:08 51°19.754 2°45.831 14.5 227 16.1 100380 89
2004-08-25 07:15:14 51°19.76 2°45.8 15.1 310 16.1 100380 89
2004-08-25 07:15:17 51°19.763 2°45.785 13.4 314 16 100370 89
2004-08-25 07:15:22 51°19.767 2°45.758 15.2 313 16 100370 89
2004-08-25 07:15:29 51°19.774 2°45.721 14.2 315 16.1 100380 89
2004-08-25 07:15:34 51°19.778 2°45.695 14.5 314 16.1 100380 89
2004-08-25 07:15:38 51°19.782 2°45.674 14.1 230 16.1 100370 89
2004-08-25 07:15:42 51°19.786 2°45.653 14.9 313 16.1 100370 89
2004-08-25 07:15:49 51°19.793 2°45.616 14.7 314 16 100360 89
2004-08-25 07:15:54 51°19.798 2°45.59 14.6 315 16 100360 89
2004-08-25 07:15:58 51°19.801 2°45.569 14.8 43 16 100360 89
2004-08-25 07:16:03 51°19.806 2°45.543 12.9 312 16 100360 89
2004-08-25 07:16:09 51°19.812 2°45.511 13.3 318 16 100380 89
2004-08-25 07:16:11 51°19.813 2°45.501 12.6 314 16 100380 89
2004-08-25 07:16:17 51°19.819 2°45.469 12.8 313 15.9 100360 89
2004-08-25 07:16:23 51°19.825 2°45.437 12.8 229 15.9 100360 89
2004-08-25 07:16:27 51°19.829 2°45.416 12.7 41 16 100380 89
2004-08-25 07:16:32 51°19.834 2°45.389 15.2 227 16 100380 89
2004-08-25 07:16:38 51°19.84 2°45.358 15.2 315 15.9 100390 89
2004-08-25 07:16:42 51°19.845 2°45.337 14.9 313 15.9 100390 89
2004-08-25 07:16:48 51°19.851 2°45.306 15 229 15.9 100370 89
2004-08-25 07:16:50 51°19.853 2°45.295 15.1 323 15.9 100370 89
2004-08-25 07:16:58 51°19.859 2°45.252 14.1 317 15.9 100360 90
2004-08-25 07:17:02 51°19.862 2°45.231 14.3 321 15.9 100360 90
2004-08-25 07:17:06 51°19.864 2°45.209 13.2 323 16 100360 90
2004-08-25 07:17:13 51°19.869 2°45.172 16.8 328 16 100360 90
2004-08-25 07:17:18 51°19.872 2°45.145 16.6 39 16 100360 90
2004-08-25 07:17:22 51°19.875 2°45.123 14.9 42 16 100360 90
2004-08-25 07:17:28 51°19.878 2°45.091 14.6 42 15.9 100380 90
2004-08-25 07:17:33 51°19.882 2°45.064 16.4 316 15.9 100380 90
2004-08-25 07:17:38 51°19.885 2°45.037 16.6 315 15.9 100380 90
2004-08-25 07:17:42 51°19.887 2°45.016 16.1 318 15.9 100380 90
2004-08-25 07:17:49 51°19.892 2°44.978 14.8 39 15.9 100360 90
2004-08-25 07:17:54 51°19.895 2°44.951 15.5 317 15.9 100360 90
2004-08-25 07:17:58 51°19.897 2°44.929 15.2 43 15.9 100370 90
2004-08-25 07:18:03 51°19.9 2°44.901 15 315 15.9 100370 90
2004-08-25 07:18:08 51°19.903 2°44.874 14.4 316 15.9 100350 90
2004-08-25 07:18:13 51°19.906 2°44.847 15.1 327 15.9 100350 90
2004-08-25 07:18:17 51°19.908 2°44.826 16 322 15.9 100370 90
2004-08-25 07:18:27 51°19.914 2°44.772 15.6 320 15.9 100360 90
2004-08-25 07:18:33 51°19.917 2°44.739 15.1 318 15.9 100360 90
2004-08-25 07:18:37 51°19.92 2°44.718 14.6 321 15.9 100370 90
2004-08-25 07:18:42 51°19.923 2°44.691 15.5 40 15.9 100370 90
2004-08-25 07:18:47 51°19.926 2°44.663 15.1 319 15.9 100350 90
2004-08-25 07:18:53 51°19.929 2°44.631 15.3 314 15.9 100350 90
2004-08-25 07:18:57 51°19.932 2°44.609 16.1 41 15.8 100360 90
2004-08-25 07:19:02 51°19.935 2°44.581 16.1 42 15.8 100360 90
2004-08-25 07:19:05 51°19.937 2°44.565 14.1 312 15.8 100360 90
2004-08-25 07:19:14 51°19.942 2°44.516 14.1 228 15.8 100360 90
2004-08-25 07:19:21 51°19.947 2°44.478 15.7 313 15.8 100350 91
2004-08-25 07:19:26 51°19.95 2°44.451 14.2 309 15.8 100350 91
2004-08-25 07:19:30 51°19.952 2°44.429 15.4 312 15.8 100360 91
2004-08-25 07:19:35 51°19.956 2°44.402 14.4 314 15.8 100360 91
2004-08-25 07:19:40 51°19.959 2°44.375 16 229 15.7 100350 91
2004-08-25 07:19:46 51°19.963 2°44.342 14.7 313 15.7 100350 91
2004-08-25 07:19:49 51°19.965 2°44.326 15.8 315 15.7 100340 91
2004-08-25 07:19:54 51°19.967 2°44.298 14.9 314 15.7 100340 91
2004-08-25 07:20:01 51°19.971 2°44.26 15.2 229 15.7 100340 91
2004-08-25 07:20:05 51°19.974 2°44.238 14.9 312 15.7 100340 91
2004-08-25 07:20:10 51°19.977 2°44.211 15 231 15.7 100340 92
2004-08-25 07:20:15 51°19.98 2°44.183 15 313 15.7 100340 92
2004-08-25 07:20:27 51°19.987 2°44.118 15.4 309 15.6 100330 92
2004-08-25 07:20:33 51°19.99 2°44.086 15.4 310 15.6 100330 92
2004-08-25 07:20:38 51°19.993 2°44.059 15.4 310 15.6 100330 92
2004-08-25 07:20:42 51°19.995 2°44.037 15.1 306 15.6 100330 92
2004-08-25 07:20:45 51°19.997 2°44.021 14.3 310 15.6 100320 92
2004-08-25 07:20:53 51°20.002 2°43.977 15.8 307 15.6 100320 92
2004-08-25 07:20:57 51°20.005 2°43.956 15.5 305 15.6 100330 92
2004-08-25 07:21:02 51°20.008 2°43.928 16.6 306 15.6 100330 92
2004-08-25 07:21:05 51°20.009 2°43.912 16.6 307 15.5 100320 92
2004-08-25 07:21:15 51°20.015 2°43.857 16.6 308 15.5 100320 92
2004-08-25 07:21:19 51°20.017 2°43.835 15.6 231 15.6 100340 92
2004-08-25 07:21:25 51°20.022 2°43.802 17.8 314 15.6 100340 92
2004-08-25 07:21:30 51°20.025 2°43.775 14.6 307 15.6 100330 92
2004-08-25 07:21:34 51°20.028 2°43.753 16.2 309 15.6 100330 92
2004-08-25 07:21:41 51°20.031 2°43.715 16.1 312 15.6 100330 93
2004-08-25 07:21:44 51°20.033 2°43.698 16.7 315 15.6 100330 93
2004-08-25 07:21:50 51°20.037 2°43.665 16 315 15.6 100340 93
2004-08-25 07:21:55 51°20.04 2°43.638 16.9 315 15.6 100340 93
2004-08-25 07:21:59 51°20.042 2°43.616 16.1 313 15.5 100330 93
2004-08-25 07:22:05 51°20.046 2°43.583 16.3 312 15.5 100330 93
2004-08-25 07:22:10 51°20.049 2°43.556 15.7 313 15.6 100340 93
2004-08-25 07:22:14 51°20.051 2°43.533 16 312 15.6 100340 93
2004-08-25 07:22:20 51°20.055 2°43.5 15.8 316 15.5 100320 93
2004-08-25 07:22:25 51°20.058 2°43.473 15.7 311 15.5 100320 93
2004-08-25 07:22:30 51°20.062 2°43.446 15.2 316 15.5 100330 93
2004-08-25 07:22:35 51°20.064 2°43.419 14.9 42 15.5 100330 93
2004-08-25 07:22:41 51°20.068 2°43.386 16.4 314 15.5 100330 93
2004-08-25 07:22:46 51°20.071 2°43.359 17 313 15.5 100330 93
2004-08-25 07:22:50 51°20.073 2°43.337 16.7 313 15.6 100330 93
2004-08-25 07:22:55 51°20.076 2°43.31 14.6 315 15.6 100330 93
2004-08-25 07:23:00 51°20.079 2°43.283 14.7 314 15.6 100330 93
2004-08-25 07:23:06 51°20.083 2°43.251 13.4 228 15.6 100330 93
2004-08-25 07:23:09 51°20.085 2°43.234 16.6 312 15.6 100320 93
2004-08-25 07:23:14 51°20.087 2°43.208 14.9 312 15.6 100320 93
2004-08-25 07:23:21 51°20.091 2°43.169 16.6 315 15.6 100320 93
2004-08-25 07:23:25 51°20.094 2°43.147 16.4 315 15.6 100320 93
2004-08-25 07:23:29 51°20.096 2°43.126 16.7 315 15.6 100320 93
2004-08-25 07:23:34 51°20.099 2°43.099 16.3 313 15.6 100320 93
2004-08-25 07:23:40 51°20.103 2°43.067 14 310 15.6 100310 93
2004-08-25 07:23:46 51°20.107 2°43.033 15.1 309 15.6 100310 93
2004-08-25 07:23:49 51°20.109 2°43.018 15.8 228 15.6 100330 93
2004-08-25 07:23:55 51°20.113 2°42.986 15.7 229 15.6 100330 93
2004-08-25 07:23:59 51°20.115 2°42.965 15.5 313 15.5 100310 93
2004-08-25 07:24:05 51°20.118 2°42.932 16.5 308 15.5 100310 93
2004-08-25 07:24:10 51°20.121 2°42.905 16 304 15.6 100320 93
2004-08-25 07:24:14 51°20.124 2°42.884 15.1 227 15.6 100320 93
2004-08-25 07:24:20 51°20.127 2°42.851 16.6 228 15.6 100320 93
2004-08-25 07:24:25 51°20.13 2°42.824 15.8 315 15.6 100320 93
2004-08-25 07:24:30 51°20.133 2°42.797 16.3 312 15.6 100320 93
2004-08-25 07:24:35 51°20.136 2°42.769 15.6 44 15.6 100320 93
2004-08-25 07:24:41 51°20.14 2°42.737 15.8 316 15.6 100310 93
2004-08-25 07:24:46 51°20.143 2°42.709 17.5 314 15.6 100310 93
2004-08-25 07:24:50 51°20.145 2°42.687 16.6 227 15.6 100320 93
2004-08-25 07:24:54 51°20.148 2°42.665 17 39 15.6 100320 93
2004-08-25 07:25:00 51°20.151 2°42.633 15.7 312 15.6 100320 93
2004-08-25 07:25:05 51°20.154 2°42.606 14.3 41 15.6 100320 93
2004-08-25 07:25:10 51°20.158 2°42.58 16 309 15.6 100330 94
2004-08-25 07:25:13 51°20.159 2°42.564 16.1 40 15.6 100330 94
2004-08-25 07:25:21 51°20.165 2°42.521 16.7 318 15.6 100320 93
2004-08-25 07:25:25 51°20.167 2°42.499 16.1 317 15.6 100320 93
2004-08-25 07:25:30 51°20.17 2°42.472 14.8 232 15.6 100320 93
2004-08-25 07:25:34 51°20.173 2°42.451 17 228 15.6 100320 93
2004-08-25 07:25:40 51°20.177 2°42.419 15.9 312 15.6 100320 93
2004-08-25 07:25:45 51°20.18 2°42.391 14.6 320 15.6 100320 93
2004-08-25 07:25:49 51°20.182 2°42.369 15.7 316 15.7 100320 94
2004-08-25 07:25:54 51°20.185 2°42.342 17.5 314 15.7 100320 94
2004-08-25 07:26:01 51°20.189 2°42.304 14.9 323 15.7 100330 94
2004-08-25 07:26:05 51°20.192 2°42.282 14.8 321 15.7 100330 94
2004-08-25 07:26:10 51°20.195 2°42.255 16.6 42 15.7 100320 94
2004-08-25 07:26:15 51°20.198 2°42.228 14.7 41 15.7 100320 94
2004-08-25 07:26:19 51°20.2 2°42.207 14.1 318 15.7 100330 94
2004-08-25 07:26:26 51°20.204 2°42.169 14.7 229 15.7 100330 94
2004-08-25 07:26:30 51°20.206 2°42.147 15.7 321 15.7 100340 94
2004-08-25 07:26:33 51°20.208 2°42.131 14.1 322 15.7 100340 94
2004-08-25 07:26:40 51°20.211 2°42.093 14.6 328 15.7 100330 94
2004-08-25 07:26:46 51°20.215 2°42.061 14.1 320 15.7 100330 94
2004-08-25 07:26:50 51°20.217 2°42.039 14.7 319 15.7 100360 94
2004-08-25 07:26:54 51°20.22 2°42.018 14.4 323 15.7 100360 94
2004-08-25 07:27:01 51°20.224 2°41.98 13.7 322 15.7 100350 94
2004-08-25 07:27:05 51°20.227 2°41.958 13 333 15.7 100350 94
2004-08-25 07:27:09 51°20.229 2°41.937 13.2 333 15.7 100360 94
2004-08-25 07:27:14 51°20.232 2°41.91 13.9 335 15.7 100360 94
2004-08-25 07:27:21 51°20.236 2°41.872 15 336 15.7 100350 94
2004-08-25 07:27:26 51°20.239 2°41.845 12.9 336 15.7 100350 94
2004-08-25 07:27:30 51°20.241 2°41.824 13.3 341 15.8 100370 94
2004-08-25 07:27:34 51°20.243 2°41.802 12.8 340 15.8 100370 94
2004-08-25 07:27:40 51°20.248 2°41.771 14.5 351 15.8 100380 94
2004-08-25 07:27:44 51°20.25 2°41.75 13.2 351 15.8 100380 94
2004-08-25 07:27:50 51°20.254 2°41.718 14.6 346 15.8 100380 94
2004-08-25 07:27:55 51°20.257 2°41.692 14.9 347 15.8 100380 94
2004-08-25 07:28:01 51°20.261 2°41.661 13.8 358 15.8 100390 94
2004-08-25 07:28:05 51°20.263 2°41.64 12.8 356 15.8 100390 94
2004-08-25 07:28:10 51°20.267 2°41.614 12.3 357 15.8 100390 94
2004-08-25 07:28:13 51°20.268 2°41.597 14.4 354 15.8 100390 94
2004-08-25 07:28:19 51°20.272 2°41.565 13.8 353 15.8 100410 94
2004-08-25 07:28:25 51°20.275 2°41.533 12.5 2 15.8 100410 94
2004-08-25 07:28:30 51°20.278 2°41.506 14.5 357 15.9 100390 94
2004-08-25 07:28:35 51°20.281 2°41.48 14.7 359 15.9 100390 94
2004-08-25 07:28:40 51°20.284 2°41.453 14.6 353 15.9 100400 94
2004-08-25 07:28:46 51°20.288 2°41.421 13.8 353 15.9 100400 94
2004-08-25 07:28:50 51°20.29 2°41.4 14.2 354 15.9 100410 94
2004-08-25 07:28:54 51°20.293 2°41.379 15.9 351 15.9 100410 94
2004-08-25 07:29:00 51°20.297 2°41.347 15.7 354 16 100400 94
2004-08-25 07:29:05 51°20.3 2°41.32 16.1 347 16 100400 94
2004-08-25 07:29:10 51°20.303 2°41.294 15.3 345 16 100410 94
2004-08-25 07:29:14 51°20.305 2°41.273 16 346 16 100410 94
2004-08-25 07:29:21 51°20.309 2°41.235 14.7 345 16.1 100410 94
2004-08-25 07:29:26 51°20.313 2°41.209 16.7 347 16.1 100410 94
2004-08-25 07:29:30 51°20.315 2°41.187 16.6 345 16.1 100410 94
2004-08-25 07:29:35 51°20.318 2°41.16 16.9 349 16.1 100410 94
2004-08-25 07:29:39 51°20.321 2°41.139 15.6 353 16.1 100390 94
2004-08-25 07:29:46 51°20.325 2°41.102 15.9 356 16.1 100390 94
2004-08-25 07:29:49 51°20.327 2°41.086 15.3 1 16.1 100380 94
2004-08-25 07:29:55 51°20.331 2°41.053 14.3 1 16.1 100380 94
2004-08-25 07:30:01 51°20.335 2°41.021 15.2 358 16.2 100380 94
2004-08-25 07:30:05 51°20.337 2°41 14.7 349 16.2 100380 94
2004-08-25 07:30:10 51°20.34 2°40.973 14.7 355 16.2 100380 94
2004-08-25 07:30:14 51°20.343 2°40.952 15.5 352 16.2 100380 94
2004-08-25 07:30:20 51°20.346 2°40.919 14.6 358 16.2 100410 94
2004-08-25 07:30:26 51°20.35 2°40.887 13.9 358 16.2 100410 94
2004-08-25 07:30:31 51°20.353 2°40.86 15.7 1 16.1 100390 93
2004-08-25 07:30:35 51°20.355 2°40.839 15.2 359 16.1 100390 93
2004-08-25 07:30:39 51°20.358 2°40.817 14.1 1 16.2 100400 93
2004-08-25 07:30:46 51°20.362 2°40.779 14.6 358 16.2 100400 93
2004-08-25 07:30:50 51°20.364 2°40.758 14.1 1 16.2 100410 93
2004-08-25 07:30:54 51°20.367 2°40.736 14.5 359 16.2 100410 93
2004-08-25 07:31:01 51°20.372 2°40.698 14.4 2 16.2 100400 92
2004-08-25 07:31:06 51°20.375 2°40.672 16.4 2 16.2 100400 92
2004-08-25 07:31:10 51°20.377 2°40.65 15.1 3 16.2 100410 92
2004-08-25 07:31:14 51°20.38 2°40.629 15 3 16.2 100410 92
2004-08-25 07:31:21 51°20.384 2°40.592 15.3 2 16.2 100390 91
2004-08-25 07:31:26 51°20.388 2°40.565 14.9 3 16.2 100390 91
2004-08-25 07:31:30 51°20.39 2°40.543 14.5 5 16.2 100400 91
2004-08-25 07:31:35 51°20.393 2°40.517 13.8 4 16.2 100400 91
2004-08-25 07:31:41 51°20.397 2°40.484 13.6 4 16.3 100410 90
2004-08-25 07:31:45 51°20.4 2°40.463 13.7 4 16.3 100410 90
2004-08-25 07:31:50 51°20.403 2°40.437 13.8 2 16.3 100410 89
2004-08-25 07:31:54 51°20.405 2°40.415 13.2 4 16.3 100410 89
2004-08-25 07:32:00 51°20.409 2°40.383 14.1 5 16.2 100390 89
2004-08-25 07:32:05 51°20.412 2°40.356 13.7 4 16.2 100390 89
2004-08-25 07:32:11 51°20.415 2°40.324 14.3 2 16.3 100420 88
2004-08-25 07:32:14 51°20.417 2°40.308 14.3 3 16.3 100420 88
2004-08-25 07:32:18 51°20.42 2°40.286 15.2 3 16.4 100390 88
2004-08-25 07:32:25 51°20.425 2°40.249 15.2 1 16.4 100390 88
2004-08-25 07:32:30 51°20.428 2°40.222 13.7 1 16.4 100400 89
2004-08-25 07:32:34 51°20.43 2°40.201 13.1 4 16.4 100400 89
2004-08-25 07:32:40 51°20.434 2°40.168 14.3 1 16.5 100410 89
2004-08-25 07:32:46 51°20.437 2°40.136 14.5 3 16.5 100410 89
2004-08-25 07:32:51 51°20.44 2°40.109 14.5 359 16.5 100420 88
2004-08-25 07:32:55 51°20.443 2°40.087 14.9 358 16.5 100420 88
2004-08-25 07:32:59 51°20.445 2°40.065 15.2 360 16.5 100400 88
2004-08-25 07:33:06 51°20.449 2°40.027 14.6 1 16.5 100400 88
2004-08-25 07:33:10 51°20.452 2°40.005 14.3   16.6 100390 87
2004-08-25 07:33:15 51°20.455 2°39.978 15   16.6 100390 87
2004-08-25 07:33:19 51°20.458 2°39.956 15.3 359 16.6 100400 87
2004-08-25 07:33:25 51°20.462 2°39.923 14.6 357 16.6 100400 87
2004-08-25 07:33:30 51°20.465 2°39.896 13.6 1 16.6 100400 86
2004-08-25 07:33:34 51°20.468 2°39.874 13.9 1 16.6 100400 86
2004-08-25 07:33:38 51°20.471 2°39.853 14.9 359 16.6 100400 86
2004-08-25 07:33:47 51°20.476 2°39.804 13.9 2 16.6 100410 86
2004-08-25 07:33:53 51°20.479 2°39.771 14.4 2 16.6 100410 86
2004-08-25 07:33:57 51°20.482 2°39.75 13.6 357 16.6 100400 86
2004-08-25 07:34:02 51°20.485 2°39.723 13.8 3 16.6 100400 86
2004-08-25 07:34:07 51°20.488 2°39.695 15.3 360 16.7 100420 85
2004-08-25 07:34:13 51°20.491 2°39.663 17 2 16.7 100420 85
2004-08-25 07:34:17 51°20.494 2°39.642 14.5 2 16.7 100400 85
2004-08-25 07:34:21 51°20.496 2°39.62 14.2 1 16.7 100400 85
2004-08-25 07:34:25 51°20.499 2°39.598 13.6 358 16.7 100420 85
2004-08-25 07:34:33 51°20.503 2°39.555 14.9 1 16.7 100420 85
2004-08-25 07:34:37 51°20.505 2°39.533 14.3 2 16.7 100390 85
2004-08-25 07:34:42 51°20.508 2°39.506 15 1 16.7 100390 85
2004-08-25 07:34:47 51°20.511 2°39.479 14.1   16.8 100400 84
2004-08-25 07:34:53 51°20.515 2°39.446 15 2 16.8 100400 84
2004-08-25 07:34:56 51°20.516 2°39.43 14.8 3 16.8 100400 84
2004-08-25 07:35:02 51°20.52 2°39.398 13.8 2 16.8 100400 84
2004-08-25 07:35:06 51°20.522 2°39.376 14.7 1 16.8 100390 84
2004-08-25 07:35:13 51°20.525 2°39.338 13.4 3 16.8 100390 84
2004-08-25 07:35:17 51°20.528 2°39.316 14.6 1 16.8 100400 84
2004-08-25 07:35:29 51°20.535 2°39.251 15.1 357 16.8 100400 84
2004-08-25 07:35:34 51°20.538 2°39.223 14.4 355 16.8 100400 84
2004-08-25 07:35:38 51°20.541 2°39.201 13.4 356 16.8 100390 84
2004-08-25 07:35:43 51°20.544 2°39.174 14 356 16.8 100390 84
2004-08-25 07:35:47 51°20.546 2°39.152 13.7 4 16.9 100410 84
2004-08-25 07:35:54 51°20.55 2°39.114 14 2 16.9 100410 84
2004-08-25 07:35:57 51°20.552 2°39.097 14.3 4 16.9 100390 83
2004-08-25 07:36:02 51°20.554 2°39.07 15.2 3 16.9 100390 83
2004-08-25 07:36:09 51°20.558 2°39.031 14.9 4 16.9 100400 83
2004-08-25 07:36:14 51°20.561 2°39.004 15.4 1 16.9 100400 83
2004-08-25 07:36:18 51°20.564 2°38.982 15.4 2 16.9 100410 84
2004-08-25 07:36:22 51°20.566 2°38.96 15.5 1 16.9 100410 84
2004-08-25 07:36:28 51°20.57 2°38.928 15.4 3 16.9 100400 83
2004-08-25 07:36:33 51°20.574 2°38.9 15 5 16.9 100400 83
2004-08-25 07:36:38 51°20.577 2°38.873 13.6 7 16.9 100410 83
2004-08-25 07:36:42 51°20.58 2°38.852 13.8 5 16.9 100410 83
2004-08-25 07:36:48 51°20.583 2°38.819 15 6 16.9 100380 82
2004-08-25 07:36:53 51°20.586 2°38.791 14.6 5 16.9 100380 82
2004-08-25 07:36:57 51°20.589 2°38.77 15.1 3 16.9 100390 82
2004-08-25 07:37:01 51°20.591 2°38.748 15.7 4 16.9 100390 82
2004-08-25 07:37:05 51°20.593 2°38.726 14 2 16.9 100410 81
2004-08-25 07:37:14 51°20.599 2°38.678 15.2   16.9 100410 81
2004-08-25 07:37:18 51°20.601 2°38.656 14.9 2 16.9 100390 81
2004-08-25 07:37:22 51°20.603 2°38.634 15.4 2 16.9 100390 81
2004-08-25 07:37:29 51°20.607 2°38.596 15   16.9 100410 81
2004-08-25 07:37:34 51°20.61 2°38.569 14.8 3 16.9 100410 81
2004-08-25 07:37:38 51°20.612 2°38.547 15.5 1 16.9 100400 82
2004-08-25 07:37:42 51°20.615 2°38.525 14.8 2 16.9 100400 82
2004-08-25 07:37:48 51°20.617 2°38.493 14.4 5 16.9 100400 81
2004-08-25 07:37:53 51°20.62 2°38.465 15.5 3 16.9 100400 81
2004-08-25 07:37:58 51°20.622 2°38.438 15.4   16.9 100380 81
2004-08-25 07:38:03 51°20.625 2°38.41 14.9 4 16.9 100380 81
2004-08-25 07:38:09 51°20.628 2°38.377 14.9 3 17 100390 81
2004-08-25 07:38:14 51°20.631 2°38.349 15.1 4 17 100390 81
2004-08-25 07:38:18 51°20.633 2°38.327 14.9 4 16.9 100390 81
2004-08-25 07:38:23 51°20.636 2°38.3 14.6 5 16.9 100390 81
2004-08-25 07:38:28 51°20.638 2°38.272 13.3 4 16.9 100390 81
2004-08-25 07:38:33 51°20.641 2°38.245 14.6 359 16.9 100390 81
2004-08-25 07:38:38 51°20.644 2°38.218 14.7 1 17 100390 81
2004-08-25 07:38:42 51°20.647 2°38.196 12.5 4 17 100390 81
2004-08-25 07:38:49 51°20.652 2°38.159 13.7 7 17 100390 81
2004-08-25 07:38:54 51°20.655 2°38.132 13.7 4 17 100390 81
2004-08-25 07:38:58 51°20.657 2°38.111 13.7 1 17 100400 81
2004-08-25 07:39:03 51°20.66 2°38.084 15.1 5 17 100400 81
2004-08-25 07:39:09 51°20.663 2°38.051 14.6 2 17 100390 81
2004-08-25 07:39:14 51°20.666 2°38.023 14.5 5 17 100390 81
2004-08-25 07:39:18 51°20.668 2°38.001 14.3 360 17 100400 81
2004-08-25 07:39:22 51°20.67 2°37.98 15.1 356 17 100400 81
2004-08-25 07:39:29 51°20.674 2°37.942 13.8 358 17 100400 81
2004-08-25 07:39:34 51°20.677 2°37.915 12.9 1 17 100400 81
2004-08-25 07:39:38 51°20.68 2°37.893 15.3 359 17 100400 80
2004-08-25 07:39:42 51°20.683 2°37.872 15.2 1 17 100400 80
2004-08-25 07:39:49 51°20.687 2°37.833 15.2 3 17 100420 80
2004-08-25 07:39:53 51°20.689 2°37.812 14.9 6 17 100420 80
2004-08-25 07:39:58 51°20.692 2°37.784 15.3 2 17 100400 81
2004-08-25 07:40:07 51°20.697 2°37.736 15.4 1 17 100400 81
2004-08-25 07:40:13 51°20.7 2°37.703 13.8 4 17 100400 81
2004-08-25 07:40:18 51°20.703 2°37.676 14.3 360 17 100390 81
2004-08-25 07:40:22 51°20.706 2°37.655 14.6 4 17 100390 81
2004-08-25 07:40:27 51°20.709 2°37.627 14.4 4 17 100380 80
2004-08-25 07:40:33 51°20.712 2°37.595 15.5 4 17 100380 80
2004-08-25 07:40:37 51°20.714 2°37.573 14.7 2 17 100390 81
2004-08-25 07:40:42 51°20.717 2°37.546 15.3 3 17 100390 81
2004-08-25 07:40:47 51°20.72 2°37.519 14.7 4 17 100390 80
2004-08-25 07:40:50 51°20.722 2°37.502 14.3 5 17 100390 80
2004-08-25 07:40:57 51°20.726 2°37.464 14.2 4 17 100390 80
2004-08-25 07:41:01 51°20.729 2°37.443 14.6 3 17 100390 80
2004-08-25 07:41:07 51°20.732 2°37.41 14.3 4 17 100390 80
2004-08-25 07:41:11 51°20.735 2°37.389 15.2 6 17 100390 80
2004-08-25 07:41:17 51°20.738 2°37.356 14 4 17 100410 79
2004-08-25 07:41:23 51°20.742 2°37.323 15.2 4 17 100410 79
2004-08-25 07:41:26 51°20.743 2°37.307 14.8 6 17 100420 79
2004-08-25 07:41:33 51°20.747 2°37.268 14.5 7 17 100420 79
2004-08-25 07:41:37 51°20.749 2°37.246 15.1 8 17 100400 79
2004-08-25 07:41:42 51°20.751 2°37.218 14.2 7 17 100400 79
2004-08-25 07:41:46 51°20.754 2°37.196 14.5 6 17 100400 80
2004-08-25 07:41:53 51°20.758 2°37.158 14.7 3 17 100400 80
2004-08-25 07:41:57 51°20.761 2°37.137 14.9 5 17 100390 79
2004-08-25 07:42:03 51°20.764 2°37.104 14.6 4 17 100390 79
2004-08-25 07:42:06 51°20.766 2°37.088 15.4 6 17 100400 79
2004-08-25 07:42:11 51°20.769 2°37.061 14.3 7 17 100400 79
2004-08-25 07:42:17 51°20.772 2°37.028 13.9 8 17 100370 80
2004-08-25 07:42:22 51°20.775 2°37.001 15 4 17 100370 80
2004-08-25 07:42:26 51°20.778 2°36.979 13.5 5 17 100390 80
2004-08-25 07:42:33 51°20.782 2°36.941 12.8 2 17 100390 80
2004-08-25 07:42:37 51°20.784 2°36.92 13.4 7 17 100380 79
2004-08-25 07:42:41 51°20.787 2°36.898 14.1 1 17 100380 79
2004-08-25 07:42:46 51°20.79 2°36.871 13.9 1 17 100400 79
2004-08-25 07:42:51 51°20.793 2°36.844 12.8 3 17 100400 79
2004-08-25 07:42:57 51°20.797 2°36.811 12.3 357 17 100400 80
2004-08-25 07:43:02 51°20.8 2°36.784 15.5 4 17 100400 80
2004-08-25 07:43:07 51°20.803 2°36.758 15.5 2 17 100400 80
2004-08-25 07:43:13 51°20.807 2°36.725 13.7 4 17 100400 80
2004-08-25 07:43:17 51°20.809 2°36.704 13 1 17 100400 80
2004-08-25 07:43:21 51°20.812 2°36.683 14 2 17 100400 80
2004-08-25 07:43:27 51°20.815 2°36.65 13.1 6 17 100400 80
2004-08-25 07:43:32 51°20.818 2°36.624 12.4 5 17 100400 80
2004-08-25 07:43:37 51°20.821 2°36.597 13.1 1 17 100390 80
2004-08-25 07:43:43 51°20.824 2°36.564 13.5 1 17 100390 80
2004-08-25 07:43:45 51°20.826 2°36.553 13.5 1 17 100410 80
2004-08-25 07:43:53 51°20.83 2°36.509 13.6 2 17 100410 80
2004-08-25 07:43:57 51°20.833 2°36.488 13.3   17 100410 80
2004-08-25 07:44:01 51°20.835 2°36.466 13.3 2 17 100410 80
2004-08-25 07:44:07 51°20.839 2°36.433 13.5 357 17 100410 80
2004-08-25 07:44:13 51°20.844 2°36.401 14 3 17 100410 80
2004-08-25 07:44:17 51°20.846 2°36.379 14.1 1 17 100400 80
2004-08-25 07:44:20 51°20.848 2°36.363 15.8 3 17 100400 80
2004-08-25 07:44:25 51°20.851 2°36.336 14.5 3 17.1 100410 80
2004-08-25 07:44:32 51°20.856 2°36.3 14 3 17.1 100410 80
2004-08-25 07:44:37 51°20.859 2°36.273 13.6 7 17 100400 80
2004-08-25 07:44:47 51°20.865 2°36.22 14.3 7 17 100400 79
2004-08-25 07:44:53 51°20.869 2°36.188 14.6 7 17 100400 79
2004-08-25 07:44:57 51°20.872 2°36.166 13.9 6 17.1 100390 79
2004-08-25 07:45:01 51°20.874 2°36.145 13.3 7 17.1 100390 79
2004-08-25 07:45:06 51°20.877 2°36.118 14.1 3 17 100410 80
2004-08-25 07:45:13 51°20.881 2°36.08 15 8 17 100410 80
2004-08-25 07:45:17 51°20.884 2°36.058 14.2 9 17 100400 79
2004-08-25 07:45:23 51°20.888 2°36.026 13.5 5 17 100400 79
2004-08-25 07:45:25 51°20.889 2°36.015 12.7 4 17 100400 79
2004-08-25 07:45:33 51°20.894 2°35.973 13.6 3 17 100400 79
2004-08-25 07:45:37 51°20.897 2°35.951 12.9 3 17 100380 78
2004-08-25 07:45:42 51°20.899 2°35.924 13.9 2 17 100380 78
2004-08-25 07:45:47 51°20.902 2°35.897 14.4 358 17.1 100410 79
2004-08-25 07:45:53 51°20.906 2°35.864 13.4 1 17.1 100410 79
2004-08-25 07:45:57 51°20.909 2°35.842 13.2 2 17.1 100390 79
2004-08-25 07:46:02 51°20.912 2°35.815 13.8 359 17.1 100390 79
2004-08-25 07:46:06 51°20.914 2°35.793 13.8 356 17.1 100410 80
2004-08-25 07:46:13 51°20.919 2°35.755 14.4 360 17.1 100410 80
2004-08-25 07:46:17 51°20.922 2°35.733 14.1 357 17.1 100400 80
2004-08-25 07:46:22 51°20.925 2°35.706 12.5 358 17.1 100400 80
2004-08-25 07:46:27 51°20.928 2°35.679 13.2 355 17.1 100410 79
2004-08-25 07:46:33 51°20.933 2°35.647 13.4 356 17.1 100410 79
2004-08-25 07:46:38 51°20.936 2°35.62 13.7 358 17.1 100400 79
2004-08-25 07:46:42 51°20.939 2°35.598 14.5 360 17.1 100400 79
2004-08-25 07:46:46 51°20.941 2°35.576 14.6 2 17.1 100390 79
2004-08-25 07:46:52 51°20.946 2°35.544 12.9 359 17.1 100390 79
2004-08-25 07:46:58 51°20.95 2°35.512 14.1 2 17.1 100410 79
2004-08-25 07:47:01 51°20.952 2°35.496 13.7 2 17.1 100410 79
2004-08-25 07:47:06 51°20.955 2°35.469 12.5 3 17.2 100410 79
2004-08-25 07:47:13 51°20.961 2°35.432 13.4 360 17.2 100410 79
2004-08-25 07:47:17 51°20.964 2°35.41 12.8 4 17.2 100400 79
2004-08-25 07:47:23 51°20.968 2°35.378 14.5 357 17.2 100400 79
2004-08-25 07:47:27 51°20.971 2°35.356 13 3 17.2 100410 80
2004-08-25 07:47:33 51°20.976 2°35.324 13.4 358 17.2 100410 80
2004-08-25 07:47:38 51°20.979 2°35.297 12.7 358 17.2 100410 79
2004-08-25 07:47:42 51°20.982 2°35.275 13.8 1 17.2 100410 79
2004-08-25 07:47:46 51°20.985 2°35.253 13.8 1 17.2 100400 79
2004-08-25 07:47:52 51°20.989 2°35.221 12.9 1 17.2 100400 79
2004-08-25 07:47:57 51°20.993 2°35.194 13.3 8 17.2 100400 79
2004-08-25 07:48:01 51°20.996 2°35.172 13.5 2 17.2 100400 79
2004-08-25 07:48:10 51°21.003 2°35.124 13.2 5 17.2 100400 79
2004-08-25 07:48:17 51°21.007 2°35.086 13.8 2 17.2 100400 79
2004-08-25 07:48:21 51°21.011 2°35.064 13.5 1 17.2 100400 79
2004-08-25 07:48:26 51°21.014 2°35.037 13.5 4 17.2 100410 79
2004-08-25 07:48:30 51°21.017 2°35.016 15 359 17.2 100410 79
2004-08-25 07:48:37 51°21.022 2°34.979 13.5 2 17.2 100420 78
2004-08-25 07:48:41 51°21.025 2°34.958 12.5 6 17.2 100420 78
2004-08-25 07:48:46 51°21.028 2°34.931 14.3 357 17.2 100400 78
2004-08-25 07:48:50 51°21.03 2°34.909 13.6 1 17.2 100400 78
2004-08-25 07:48:55 51°21.034 2°34.883 14.7 359 17.2 100420 78
2004-08-25 07:49:02 51°21.039 2°34.846 13.9 6 17.2 100420 78